This is the latest recevied weather packets stored in our database for station/object KB3AWQ. If no packets are shown the sender has not sent any weather packets the latest 1 day(s).
| Time | Temp. | Humidity | Pressure | Rain* | Wind** | Luminosity | Snow |
|---|---|---|---|---|---|---|---|
| 1777991968 | 24.44° C | 54% | 1008.2 hPa | 0 mm | 0.89 m/s, 235° | 228 W/m² | - |
| 1777991667 | 24.44° C | 56% | 1008.2 hPa | 0 mm | 0.89 m/s, 217° | 751 W/m² | - |
| 1777991366 | 24.44° C | 56% | 1008.3 hPa | 0 mm | 0.45 m/s, 206° | 184 W/m² | - |
| 1777991068 | 23.89° C | 57% | 1008.2 hPa | 0 mm | 0 m/s | 513 W/m² | - |
| 1777990501 | 23.89° C | 57% | 1008.3 hPa | 0 mm | 0 m/s | 648 W/m² | - |
| 1777990167 | 23.33° C | 59% | 1008.3 hPa | 0 mm | 0.45 m/s, 347° | 671 W/m² | - |
| 1777989867 | 22.78° C | 60% | 1008.3 hPa | 0 mm | 0 m/s | 640 W/m² | - |
| 1777989571 | 22.22° C | 61% | 1008.4 hPa | 0 mm | 0 m/s | 644 W/m² | - |
| 1777989270 | 21.67° C | 63% | 1008.4 hPa | 0 mm | 0 m/s | 420 W/m² | - |
| 1777988968 | 20.56° C | 67% | 1008.4 hPa | 0 mm | 0 m/s | 607 W/m² | - |
| 1777988669 | 20° C | 70% | 1008.4 hPa | 0 mm | 0.45 m/s, 106° | 583 W/m² | - |
| 1777988371 | 19.44° C | 72% | 1008.4 hPa | 0 mm | 1.34 m/s, 84° | 563 W/m² | - |
| 1777988066 | 19.44° C | 72% | 1008.5 hPa | 0 mm | 1.34 m/s, 69° | 551 W/m² | - |
| 1777987770 | 19.44° C | 73% | 1008.6 hPa | 0 mm | 0.89 m/s, 44° | 550 W/m² | - |
| 1777987470 | 18.89° C | 74% | 1008.6 hPa | 0 mm | 0.89 m/s, 124° | 533 W/m² | - |
| 1777987171 | 18.89° C | 75% | 1008.6 hPa | 0 mm | 0.89 m/s, 78° | 513 W/m² | - |
| 1777986867 | 18.33° C | 74% | 1008.7 hPa | 0 mm | 0.45 m/s, 69° | 476 W/m² | - |
| 1777986566 | 18.33° C | 76% | 1008.6 hPa | 0 mm | 0.89 m/s, 93° | 466 W/m² | - |
| 1777986266 | 17.78° C | 78% | 1008.7 hPa | 0 mm | 0.89 m/s, 62° | 443 W/m² | - |
| 1777985967 | 16.67° C | 81% | 1008.7 hPa | 0 mm | 0 m/s | 411 W/m² | - |
| 1777985667 | 15.56° C | 84% | 1008.6 hPa | 0 mm | 0 m/s | 390 W/m² | - |
| 1777985366 | 15° C | 86% | 1008.7 hPa | 0 mm | 0 m/s | 379 W/m² | - |
| 1777985068 | 14.44° C | 88% | 1008.8 hPa | 0 mm | 0 m/s | 378 W/m² | - |
| 1777984766 | 13.89° C | 90% | 1008.8 hPa | 0 mm | 0 m/s | 366 W/m² | - |
| 1777984466 | 13.33° C | 91% | 1008.9 hPa | 0 mm | 0 m/s | 228 W/m² | - |
* Rain latest hour (hover to see other rain measurements)
** Current wind speed in m/s (hover to see current wind gust speed)